Time;durP1;ratioP1;P1;durP2;ratioP2;P2;SDS_P1;SDS_P2;PMS_P1;PMS_P2;Temp;Humidity;BMP_temperature;BMP_pressure;BME280_temperature;BME280_humidity;BME280_pressure;Samples;Min_cycle;Max_cycle;Signal;HPM_P1;HPM_P2
2022/08/21 00:01:22;;;;;;;4.60;1.10;;;13.60;88.80;;;;;;4994659;28;20924;-76
2022/08/21 00:03:50;;;;;;;3.17;0.98;;;13.40;89.60;;;;;;4994068;28;20797;-77
2022/08/21 00:06:17;;;;;;;2.35;0.88;;;13.50;89.50;;;;;;4994624;28;20784;-76
2022/08/21 00:08:45;;;;;;;2.50;0.80;;;13.60;87.40;;;;;;4994581;28;21078;-76
2022/08/21 00:11:12;;;;;;;4.78;1.00;;;13.50;88.00;;;;;;4960492;28;20876;-76
2022/08/21 00:13:40;;;;;;;2.75;1.00;;;13.70;89.20;;;;;;4980398;28;20421;-76
2022/08/21 00:16:07;;;;;;;2.97;0.90;;;13.90;89.20;;;;;;4994286;28;20880;-74
2022/08/21 00:18:38;;;;;;;2.75;0.88;;;14.10;86.00;;;;;;4993891;28;20722;-75
2022/08/21 00:21:05;;;;;;;2.05;0.60;;;14.30;86.20;;;;;;4992384;28;20493;-77
2022/08/21 00:23:35;;;;;;;2.20;0.80;;;14.50;84.90;;;;;;4992954;28;20458;-77
2022/08/21 00:26:02;;;;;;;1.50;0.77;;;14.70;83.70;;;;;;4975401;28;20380;-76
2022/08/21 00:28:29;;;;;;;2.22;0.80;;;14.90;81.90;;;;;;4992914;28;20435;-76
2022/08/21 00:30:57;;;;;;;2.42;0.77;;;14.90;82.70;;;;;;4992224;28;20833;-77
2022/08/21 00:33:25;;;;;;;2.28;0.70;;;14.80;82.50;;;;;;4992665;28;20412;-75
2022/08/21 00:35:52;;;;;;;3.22;1.65;;;14.70;82.30;;;;;;4992428;28;21146;-76
2022/08/21 00:38:19;;;;;;;3.08;0.90;;;14.60;82.10;;;;;;4992531;28;20392;-76
2022/08/21 00:40:53;;;;;;;1.50;0.70;;;14.50;81.50;;;;;;4992218;28;20377;-76
2022/08/21 00:43:27;;;;;;;2.47;0.85;;;14.40;81.50;;;;;;4992265;28;20380;-76
2022/08/21 00:45:55;;;;;;;3.28;0.90;;;14.50;83.60;;;;;;4992354;28;20384;-76
2022/08/21 00:48:23;;;;;;;2.17;0.73;;;14.50;83.30;;;;;;4992707;28;20372;-76
2022/08/21 00:50:55;;;;;;;2.60;0.90;;;14.50;81.20;;;;;;4975012;28;20392;-76
2022/08/21 00:53:23;;;;;;;4.00;0.80;;;14.50;82.00;;;;;;4992138;28;20408;-77
2022/08/21 00:55:51;;;;;;;2.17;0.70;;;14.60;80.70;;;;;;4992185;28;20500;-76
2022/08/21 00:58:19;;;;;;;3.28;0.80;;;14.60;82.90;;;;;;4991948;28;20961;-75
2022/08/21 01:00:49;;;;;;;3.75;0.90;;;14.60;83.10;;;;;;4991737;28;20377;-76
2022/08/21 01:03:19;;;;;;;2.03;0.90;;;14.70;81.20;;;;;;4991764;28;20432;-77
2022/08/21 01:05:47;;;;;;;2.15;0.70;;;14.80;83.20;;;;;;4991753;28;20404;-77
2022/08/21 01:08:17;;;;;;;2.00;0.70;;;15.00;82.70;;;;;;4991758;28;20768;-75
2022/08/21 01:10:44;;;;;;;2.90;0.80;;;15.10;82.10;;;;;;4991680;28;20388;-76
2022/08/21 01:13:14;;;;;;;2.05;0.80;;;15.20;81.30;;;;;;4981425;28;20470;-76
2022/08/21 01:15:44;;;;;;;2.88;1.00;;;15.30;80.90;;;;;;4987331;28;20385;-76
2022/08/21 01:18:14;;;;;;;4.33;0.90;;;15.40;80.60;;;;;;4991569;28;20397;-77
2022/08/21 01:20:51;;;;;;;2.17;0.85;;;15.50;79.00;;;;;;4991277;28;20377;-76
2022/08/21 01:23:18;;;;;;;3.53;0.90;;;15.40;78.80;;;;;;4991591;28;20384;-75
2022/08/21 01:25:46;;;;;;;1.67;0.80;;;15.40;79.00;;;;;;4991286;28;20410;-75
2022/08/21 01:28:15;;;;;;;2.65;0.90;;;15.70;79.30;;;;;;4991568;28;20417;-75
2022/08/21 01:30:44;;;;;;;2.70;0.90;;;16.40;77.00;;;;;;4991064;28;20427;-76
2022/08/21 01:33:11;;;;;;;2.33;0.90;;;17.00;76.30;;;;;;4991227;28;20789;-76
2022/08/21 01:35:38;;;;;;;2.92;0.95;;;17.90;73.00;;;;;;4991369;28;20384;-75
2022/08/21 01:38:06;;;;;;;2.40;0.90;;;18.60;69.90;;;;;;4991284;28;20883;-76
2022/08/21 01:40:33;;;;;;;2.13;0.80;;;19.30;68.30;;;;;;4991084;28;20464;-76
2022/08/21 01:43:00;;;;;;;2.08;0.80;;;20.20;63.30;;;;;;4991144;28;20979;-76
2022/08/21 01:45:27;;;;;;;3.28;0.90;;;21.00;59.80;;;;;;4991289;28;20399;-76
2022/08/21 01:47:54;;;;;;;1.65;0.70;;;21.30;57.60;;;;;;4991096;28;20385;-76
2022/08/21 01:50:23;;;;;;;2.97;0.73;;;20.80;57.40;;;;;;4991254;28;20385;-76
2022/08/21 01:52:51;;;;;;;2.87;0.87;;;20.30;59.70;;;;;;4990695;28;20475;-76
2022/08/21 01:55:20;;;;;;;2.72;0.80;;;20.00;59.30;;;;;;4991338;28;20381;-76
2022/08/21 01:57:48;;;;;;;1.60;0.73;;;19.60;59.00;;;;;;4973698;28;20408;-76
2022/08/21 02:00:17;;;;;;;1.35;0.70;;;20.00;59.20;;;;;;4990688;28;20476;-76
2022/08/21 02:02:44;;;;;;;1.17;0.60;;;19.80;58.10;;;;;;4991049;28;20392;-76
2022/08/21 02:05:12;;;;;;;2.30;0.70;;;20.00;58.70;;;;;;4990607;28;20923;-76
2022/08/21 02:07:42;;;;;;;1.90;0.70;;;20.40;57.70;;;;;;4991153;28;20385;-76
2022/08/21 02:10:11;;;;;;;1.90;0.80;;;20.10;58.50;;;;;;4990795;28;20381;-77
2022/08/21 02:12:38;;;;;;;2.60;1.00;;;21.00;57.20;;;;;;4990600;28;20406;-77
2022/08/21 02:15:09;;;;;;;1.48;0.70;;;21.20;57.10;;;;;;4990823;28;20451;-76
2022/08/21 02:17:57;;;;;;;1.95;0.70;;;21.50;56.90;;;;;;4990522;28;20392;-76
2022/08/21 02:20:27;;;;;;;1.83;0.80;;;21.50;56.20;;;;;;4990410;28;20388;-76
2022/08/21 02:22:55;;;;;;;1.27;0.70;;;22.00;55.80;;;;;;4977300;28;20524;-76
2022/08/21 02:25:24;;;;;;;1.60;0.88;;;21.60;54.40;;;;;;4990573;28;20385;-77
2022/08/21 02:27:51;;;;;;;1.77;0.80;;;22.00;53.70;;;;;;4994695;28;20454;-76
2022/08/21 02:30:23;;;;;;;2.95;0.80;;;22.20;53.40;;;;;;4986273;28;20382;-78
2022/08/21 02:32:51;;;;;;;1.45;0.90;;;21.70;53.60;;;;;;4995456;28;20407;-82
2022/08/21 02:35:18;;;;;;;1.42;0.60;;;21.80;54.70;;;;;;5009091;28;20421;-75
2022/08/21 02:37:51;;;;;;;2.45;0.65;;;22.20;53.30;;;;;;5012680;28;20412;-77
2022/08/21 02:40:21;;;;;;;2.08;0.63;;;23.00;51.80;;;;;;5018419;28;20415;-80
2022/08/21 02:42:48;;;;;;;3.00;0.80;;;23.50;51.30;;;;;;5017071;28;20385;-77
2022/08/21 02:45:17;;;;;;;3.20;0.80;;;24.50;50.80;;;;;;5013256;28;20393;-81
2022/08/21 02:48:02;;;;;;;2.78;0.80;;;25.70;49.20;;;;;;5011682;28;20384;-77
2022/08/21 02:50:36;;;;;;;3.85;0.80;;;26.50;47.10;;;;;;5010078;28;20401;-80
2022/08/21 02:53:05;;;;;;;2.63;0.70;;;27.00;44.90;;;;;;4996822;28;20487;-79
2022/08/21 02:55:35;;;;;;;1.73;0.95;;;27.20;44.30;;;;;;4997701;28;20373;-83
2022/08/21 02:58:03;;;;;;;2.33;0.70;;;26.90;45.30;;;;;;5003240;28;20389;-81
2022/08/21 03:00:31;;;;;;;2.17;0.70;;;26.20;44.20;;;;;;5007353;28;20433;-85
2022/08/21 03:03:00;;;;;;;1.20;0.70;;;25.70;44.60;;;;;;5012149;28;20392;-86
2022/08/21 03:05:30;;;;;;;1.13;0.68;;;25.90;44.40;;;;;;5014052;28;20396;-85
2022/08/21 03:07:59;;;;;;;2.20;0.70;;;25.90;44.80;;;;;;5011796;28;20381;-86
2022/08/21 03:10:26;;;;;;;2.78;0.80;;;25.90;44.00;;;;;;5015989;28;20377;-86
2022/08/21 03:12:54;;;;;;;1.50;0.70;;;25.20;45.00;;;;;;5018463;28;20465;-87
2022/08/21 03:15:25;;;;;;;2.50;0.60;;;25.10;45.40;;;;;;5018902;28;20389;-87
2022/08/21 03:17:54;;;;;;;2.03;0.80;;;24.70;45.20;;;;;;4988988;28;20401;-89
2022/08/21 03:20:25;;;;;;;1.83;0.80;;;24.50;46.30;;;;;;5013648;28;20392;-89
2022/08/21 03:22:54;;;;;;;1.85;0.70;;;25.10;46.60;;;;;;5002050;28;20459;-89
2022/08/21 03:25:23;;;;;;;1.85;0.80;;;25.30;45.30;;;;;;4996900;28;20924;-92
2022/08/21 03:27:50;;;;;;;1.70;0.75;;;25.30;45.70;;;;;;4996748;28;20421;-91
2022/08/21 03:30:19;;;;;;;1.42;0.70;;;25.90;45.90;;;;;;4996239;28;20474;-88
2022/08/21 03:32:47;;;;;;;2.25;0.75;;;26.00;46.00;;;;;;4996032;28;20466;-88
2022/08/21 03:35:15;;;;;;;1.88;0.80;;;26.20;45.00;;;;;;4994686;28;20876;-91
2022/08/21 03:37:42;;;;;;;2.92;0.90;;;26.50;44.60;;;;;;4995777;28;20436;-93
2022/08/21 03:40:11;;;;;;;2.42;0.90;;;26.70;44.60;;;;;;4996141;28;20416;-89
2022/08/21 03:42:38;;;;;;;1.65;0.80;;;26.40;44.90;;;;;;4989643;28;20924;-93
2022/08/21 03:45:07;;;;;;;1.48;0.90;;;26.60;44.10;;;;;;4994825;28;20387;-92
2022/08/21 03:47:35;;;;;;;2.20;0.90;;;26.40;44.30;;;;;;4997272;28;20451;-89
2022/08/21 03:50:05;;;;;;;1.90;0.80;;;26.90;43.80;;;;;;4980773;28;20421;-89
2022/08/21 03:52:32;;;;;;;3.67;1.00;;;26.80;42.60;;;;;;4993636;28;20424;-87
2022/08/21 03:55:00;;;;;;;2.47;0.90;;;26.40;44.20;;;;;;4998902;28;20419;-86
2022/08/21 03:57:27;;;;;;;2.60;0.95;;;26.50;42.90;;;;;;4996966;28;20944;-86
2022/08/21 03:59:54;;;;;;;2.38;0.98;;;26.50;44.00;;;;;;4994527;28;20389;-90
2022/08/21 04:02:22;;;;;;;2.28;0.90;;;27.10;43.30;;;;;;4994647;28;20375;-87
2022/08/21 04:04:49;;;;;;;2.17;0.97;;;27.90;41.60;;;;;;4994963;28;20445;-86
2022/08/21 04:07:17;;;;;;;2.73;1.00;;;28.20;41.40;;;;;;4994999;28;20493;-88
2022/08/21 04:09:45;;;;;;;1.55;0.80;;;28.90;41.00;;;;;;4993670;28;20459;-83
2022/08/21 04:12:13;;;;;;;1.83;0.90;;;28.20;41.20;;;;;;4977534;28;20405;-80
2022/08/21 04:14:41;;;;;;;1.85;0.80;;;27.90;41.50;;;;;;4988594;28;20503;-79
2022/08/21 04:17:08;;;;;;;1.95;0.80;;;28.20;41.60;;;;;;4992815;28;20393;-80
2022/08/21 04:19:35;;;;;;;4.00;1.00;;;28.30;41.10;;;;;;4993340;28;20383;-80
2022/08/21 04:22:02;;;;;;;1.35;0.80;;;27.70;41.50;;;;;;4993273;28;20404;-80
2022/08/21 04:24:30;;;;;;;1.38;0.60;;;27.50;41.90;;;;;;4993444;28;20377;-80
2022/08/21 04:26:57;;;;;;;1.73;0.70;;;26.80;43.30;;;;;;4993095;28;20395;-79
2022/08/21 04:29:24;;;;;;;1.33;0.80;;;26.40;43.30;;;;;;4992294;28;20488;-80
2022/08/21 04:31:52;;;;;;;1.55;0.70;;;26.50;43.30;;;;;;4993156;28;20404;-80
2022/08/21 04:34:19;;;;;;;1.87;1.00;;;26.90;43.10;;;;;;4991759;28;20405;-80
2022/08/21 04:36:46;;;;;;;1.75;0.90;;;27.30;42.50;;;;;;4992256;28;20385;-79
2022/08/21 04:39:13;;;;;;;1.40;0.70;;;27.70;41.00;;;;;;4990799;28;20495;-81
2022/08/21 04:41:41;;;;;;;1.30;0.65;;;27.90;41.30;;;;;;4992801;28;20416;-83
2022/08/21 04:44:08;;;;;;;0.80;0.65;;;28.40;40.50;;;;;;4975248;28;20719;-81
2022/08/21 04:46:35;;;;;;;1.80;0.80;;;28.30;40.70;;;;;;4992593;28;20424;-83
2022/08/21 04:49:03;;;;;;;1.38;0.70;;;27.40;41.70;;;;;;4991922;28;20911;-82
2022/08/21 04:51:34;;;;;;;5.27;1.10;;;27.30;42.30;;;;;;4992393;28;20385;-83
2022/08/21 04:54:11;;;;;;;1.77;0.88;;;27.60;42.20;;;;;;4992808;28;20388;-86
2022/08/21 04:56:47;;;;;;;2.20;0.88;;;27.50;42.00;;;;;;4974062;28;20454;-85
2022/08/21 04:59:22;;;;;;;2.60;0.90;;;27.50;42.20;;;;;;4993129;28;20381;-81
2022/08/21 05:01:50;;;;;;;3.42;1.48;;;27.00;42.20;;;;;;4992300;28;20389;-83
2022/08/21 05:04:22;;;;;;;1.80;0.75;;;26.60;43.20;;;;;;4992103;28;20437;-82
2022/08/21 05:06:51;;;;;;;1.23;0.68;;;26.60;43.10;;;;;;4992222;28;20923;-83
2022/08/21 05:09:20;;;;;;;1.50;0.70;;;26.80;42.60;;;;;;4992425;28;20376;-83
2022/08/21 05:11:48;;;;;;;1.42;0.70;;;26.70;43.20;;;;;;4991562;28;20389;-83
2022/08/21 05:14:16;;;;;;;2.33;0.80;;;27.40;44.10;;;;;;4978485;28;20496;-91
2022/08/21 05:16:43;;;;;;;2.28;0.77;;;27.30;42.90;;;;;;4992252;28;20384;-82
2022/08/21 05:19:11;;;;;;;2.57;0.80;;;27.10;42.50;;;;;;4989489;28;21355;-80
2022/08/21 05:21:43;;;;;;;3.20;0.80;;;27.20;42.90;;;;;;4991507;28;20381;-81
2022/08/21 05:24:11;;;;;;;3.37;0.80;;;27.40;42.80;;;;;;4991775;28;20385;-81
2022/08/21 05:26:38;;;;;;;1.83;0.80;;;27.40;42.80;;;;;;4991754;28;20428;-79
2022/08/21 05:29:06;;;;;;;2.03;1.15;;;27.00;43.00;;;;;;4991389;28;20403;-79
2022/08/21 05:31:34;;;;;;;3.60;2.30;;;26.50;42.60;;;;;;4991562;28;20447;-79
2022/08/21 05:34:01;;;;;;;1.45;1.10;;;26.30;43.70;;;;;;4991400;28;20888;-81
2022/08/21 05:36:28;;;;;;;3.38;1.00;;;25.80;43.70;;;;;;4991523;28;20380;-81
2022/08/21 05:38:55;;;;;;;1.85;0.90;;;25.60;44.50;;;;;;4991543;28;20935;-80
2022/08/21 05:41:22;;;;;;;1.83;0.85;;;25.30;44.20;;;;;;4991139;28;20385;-80
2022/08/21 05:43:49;;;;;;;3.30;1.20;;;24.80;45.10;;;;;;4991443;28;20447;-80
2022/08/21 05:46:17;;;;;;;2.97;0.90;;;23.90;45.90;;;;;;4991169;28;20412;-81
2022/08/21 05:48:44;;;;;;;1.65;0.80;;;22.60;48.10;;;;;;4991248;28;20460;-80
2022/08/21 05:51:13;;;;;;;2.88;0.90;;;22.00;50.00;;;;;;4991169;28;20384;-80
2022/08/21 05:53:42;;;;;;;2.08;0.90;;;21.60;50.70;;;;;;4973846;28;20551;-82
2022/08/21 05:56:11;;;;;;;1.38;0.98;;;21.00;51.80;;;;;;4991122;28;20385;-80
2022/08/21 05:58:38;;;;;;;3.03;1.08;;;20.50;52.60;;;;;;4975502;28;20387;-79
2022/08/21 06:01:06;;;;;;;2.63;1.00;;;20.20;53.80;;;;;;5003376;28;20800;-78
2022/08/21 06:03:36;;;;;;;1.83;0.88;;;19.90;54.40;;;;;;4991996;28;20419;-82
2022/08/21 06:06:04;;;;;;;2.20;1.05;;;19.60;55.00;;;;;;4990693;28;20442;-79
2022/08/21 06:08:31;;;;;;;1.60;0.93;;;19.30;55.90;;;;;;4990839;28;20393;-79
2022/08/21 06:11:00;;;;;;;2.97;0.82;;;19.30;56.20;;;;;;4990402;28;20798;-79
2022/08/21 06:13:28;;;;;;;3.17;0.80;;;19.20;56.50;;;;;;4978926;28;20411;-79
2022/08/21 06:16:11;;;;;;;4.70;0.70;;;19.10;56.00;;;;;;4971832;28;20400;-79
2022/08/21 06:18:39;;;;;;;2.45;0.80;;;19.20;57.40;;;;;;4990593;28;20735;-79
2022/08/21 06:21:07;;;;;;;3.70;0.90;;;19.30;56.90;;;;;;4990261;28;20396;-80
2022/08/21 06:23:35;;;;;;;2.35;0.90;;;19.40;56.70;;;;;;4990099;28;20468;-79
2022/08/21 06:26:04;;;;;;;1.75;0.80;;;19.50;56.30;;;;;;4989987;28;20444;-78
2022/08/21 06:28:32;;;;;;;2.30;0.80;;;19.60;56.00;;;;;;4990769;28;20393;-77
2022/08/21 06:30:59;;;;;;;1.80;1.07;;;19.70;56.00;;;;;;4990544;28;20377;-76
2022/08/21 06:33:26;;;;;;;2.92;1.15;;;19.60;55.90;;;;;;4990872;28;20420;-79
2022/08/21 06:35:53;;;;;;;6.07;0.95;;;19.40;56.20;;;;;;4990438;28;20412;-78
2022/08/21 06:38:20;;;;;;;2.55;1.00;;;19.30;56.70;;;;;;4990479;28;20397;-77
2022/08/21 06:40:47;;;;;;;2.78;2.00;;;19.20;57.10;;;;;;4990892;28;20781;-77
2022/08/21 06:43:17;;;;;;;6.65;3.20;;;19.10;57.50;;;;;;4973336;28;20427;-82
2022/08/21 06:45:44;;;;;;;5.00;2.67;;;19.10;57.50;;;;;;4990490;28;20385;-80
2022/08/21 06:48:11;;;;;;;5.00;2.00;;;19.00;57.60;;;;;;4990484;28;20420;-80
2022/08/21 06:50:39;;;;;;;2.15;1.20;;;18.90;57.60;;;;;;4990951;28;20375;-80
2022/08/21 06:53:10;;;;;;;2.85;1.30;;;18.80;58.40;;;;;;4990513;28;20408;-79
2022/08/21 06:55:38;;;;;;;2.97;2.30;;;18.70;58.50;;;;;;4991846;28;20404;-83
2022/08/21 06:58:06;;;;;;;3.40;2.30;;;18.60;58.70;;;;;;4974822;28;20432;-78
2022/08/21 07:00:34;;;;;;;4.20;1.88;;;18.50;58.90;;;;;;4991756;28;20734;-78
2022/08/21 07:03:01;;;;;;;3.53;1.80;;;18.40;59.20;;;;;;4993999;28;20496;-76
2022/08/21 07:05:30;;;;;;;2.80;1.25;;;18.30;59.70;;;;;;4991968;28;20397;-79
2022/08/21 07:07:58;;;;;;;3.25;1.90;;;18.20;59.90;;;;;;4990825;28;20397;-78
2022/08/21 07:10:26;;;;;;;2.72;2.00;;;17.90;60.00;;;;;;4990849;28;20377;-79
2022/08/21 07:12:54;;;;;;;3.93;2.03;;;17.80;61.10;;;;;;4984944;28;20762;-79
2022/08/21 07:15:22;;;;;;;3.40;1.43;;;17.60;61.40;;;;;;4993788;28;20384;-79
2022/08/21 07:17:49;;;;;;;2.75;1.10;;;17.50;61.50;;;;;;4980635;28;20868;-78
2022/08/21 07:20:16;;;;;;;2.40;1.20;;;17.40;62.00;;;;;;4994130;28;20393;-78
2022/08/21 07:22:44;;;;;;;4.28;1.20;;;17.20;62.40;;;;;;4993464;28;20473;-79
2022/08/21 07:25:11;;;;;;;2.67;1.02;;;17.00;62.60;;;;;;4993921;28;20443;-80
2022/08/21 07:27:38;;;;;;;2.17;1.20;;;16.90;63.00;;;;;;4990868;28;20403;-82
2022/08/21 07:30:06;;;;;;;1.67;1.45;;;16.70;63.30;;;;;;4993752;28;20408;-79
2022/08/21 07:32:34;;;;;;;3.20;1.47;;;16.60;63.80;;;;;;4993523;28;20420;-79
2022/08/21 07:35:01;;;;;;;2.97;1.50;;;16.50;64.20;;;;;;4993512;28;20467;-79
2022/08/21 07:37:28;;;;;;;3.08;1.40;;;16.30;64.70;;;;;;4993237;28;20749;-83
2022/08/21 07:39:56;;;;;;;3.95;1.40;;;16.20;65.00;;;;;;4993394;28;20471;-79
2022/08/21 07:42:23;;;;;;;2.65;1.23;;;16.00;65.80;;;;;;4993089;28;20423;-78
2022/08/21 07:44:50;;;;;;;3.35;1.50;;;15.80;66.40;;;;;;4993557;28;20468;-79
2022/08/21 07:47:17;;;;;;;4.20;2.10;;;15.70;67.20;;;;;;4993867;28;20475;-77
2022/08/21 07:49:46;;;;;;;38.80;29.80;;;15.50;67.80;;;;;;4975340;28;20401;-79
2022/08/21 07:52:13;;;;;;;79.47;59.33;;;15.30;68.70;;;;;;4992636;28;20405;-78
2022/08/21 07:54:40;;;;;;;154.23;114.82;;;15.10;69.50;;;;;;4993147;28;20392;-77
2022/08/21 07:57:07;;;;;;;106.97;73.28;;;15.00;70.20;;;;;;4992093;28;20689;-80
2022/08/21 07:59:34;;;;;;;36.35;26.88;;;14.90;70.80;;;;;;4990626;28;20942;-75
2022/08/21 08:02:02;;;;;;;13.85;9.32;;;14.70;71.60;;;;;;4979788;28;20464;-78
2022/08/21 08:04:29;;;;;;;7.57;3.88;;;14.60;72.60;;;;;;4992370;28;20401;-81
2022/08/21 08:06:56;;;;;;;5.50;4.60;;;14.50;73.40;;;;;;4992945;28;20396;-80
2022/08/21 08:09:23;;;;;;;5.00;3.38;;;14.40;74.60;;;;;;4993141;28;20377;-78
2022/08/21 08:11:50;;;;;;;4.45;2.50;;;14.20;75.60;;;;;;4992739;28;20463;-78
2022/08/21 08:14:17;;;;;;;7.25;3.67;;;14.10;77.30;;;;;;4980978;28;20440;-78
2022/08/21 08:16:44;;;;;;;6.72;3.30;;;14.00;79.10;;;;;;4992624;28;20484;-80
2022/08/21 08:19:11;;;;;;;4.60;2.50;;;13.80;81.00;;;;;;4991821;28;20487;-81
2022/08/21 08:21:39;;;;;;;4.93;2.50;;;13.70;83.20;;;;;;4992836;28;20475;-79
2022/08/21 08:24:06;;;;;;;4.75;2.38;;;13.70;85.60;;;;;;4988125;28;20439;-82
2022/08/21 08:26:33;;;;;;;6.10;2.63;;;13.50;87.80;;;;;;4992473;28;20394;-79
2022/08/21 08:29:00;;;;;;;5.70;2.60;;;13.80;89.30;;;;;;4992571;28;20517;-82
2022/08/21 08:31:27;;;;;;;5.78;2.97;;;13.70;90.60;;;;;;4992965;28;20388;-81
2022/08/21 08:33:54;;;;;;;5.72;2.67;;;13.70;92.20;;;;;;4991935;28;20420;-77
2022/08/21 08:36:34;;;;;;;6.37;2.30;;;13.70;95.00;;;;;;4994303;28;21159;-79
2022/08/21 08:39:03;;;;;;;9.88;2.45;;;13.60;98.20;;;;;;4992763;28;20741;-78
2022/08/21 08:41:32;;;;;;;10.15;5.35;;;13.60;98.80;;;;;;4974571;28;20392;-77
2022/08/21 08:44:04;;;;;;;11.60;6.53;;;13.50;99.90;;;;;;4992629;28;20396;-77
2022/08/21 08:46:48;;;;;;;9.95;4.18;;;13.40;99.90;;;;;;4983288;28;20388;-79
2022/08/21 08:49:22;;;;;;;12.95;7.28;;;13.40;99.90;;;;;;4991624;28;20392;-77
2022/08/21 08:51:55;;;;;;;9.50;4.57;;;13.40;99.90;;;;;;4978730;28;20876;-79
2022/08/21 08:54:38;;;;;;;9.80;2.95;;;13.30;99.90;;;;;;4973850;28;20421;-79
2022/08/21 08:57:14;;;;;;;7.97;2.95;;;13.30;99.90;;;;;;4979761;28;20404;-77
2022/08/21 08:59:44;;;;;;;7.97;2.70;;;13.20;99.90;;;;;;4991624;28;20381;-80
2022/08/21 09:02:15;;;;;;;7.07;2.90;;;13.20;99.90;;;;;;4991539;28;20479;-79
2022/08/21 09:04:48;;;;;;;8.50;3.05;;;13.10;99.90;;;;;;4990747;28;20970;-78
2022/08/21 09:07:21;;;;;;;6.72;2.90;;;13.10;99.90;;;;;;4991498;28;20389;-78
2022/08/21 09:10:15;;;;;;;10.02;3.30;;;13.00;99.90;;;;;;4986266;28;20685;-78
2022/08/21 09:13:00;;;;;;;7.53;2.70;;;13.00;99.90;;;;;;4985771;28;20414;-79
2022/08/21 09:15:33;;;;;;;6.40;2.70;;;12.90;99.90;;;;;;4991461;28;20526;-79
2022/08/21 09:18:03;;;;;;;7.28;2.70;;;12.90;99.90;;;;;;4991121;28;20392;-78
2022/08/21 09:20:48;;;;;;;8.77;3.00;;;12.80;99.90;;;;;;4991541;28;20393;-77
2022/08/21 09:23:52;;;;;;;6.22;2.95;;;12.70;99.90;;;;;;4999409;28;21213;-78
2022/08/21 09:26:23;;;;;;;8.25;3.05;;;12.70;99.90;;;;;;4982050;28;20455;-77
2022/08/21 09:29:01;;;;;;;6.93;2.97;;;12.60;99.90;;;;;;4998696;28;20404;-76
2022/08/21 09:31:39;;;;;;;7.20;3.00;;;12.80;99.90;;;;;;4904406;29;20400;-79
2022/08/21 09:34:11;;;;;;;7.82;3.00;;;12.50;99.90;;;;;;4937498;29;20426;-78
2022/08/21 09:36:49;;;;;;;8.33;3.03;;;12.50;99.90;;;;;;4927373;29;20480;-75
2022/08/21 09:39:40;;;;;;;5.53;2.60;;;12.40;99.90;;;;;;4934397;29;20428;-77
2022/08/21 09:42:10;;;;;;;10.48;3.10;;;12.30;99.90;;;;;;4934887;29;20434;-76
2022/08/21 09:44:43;;;;;;;8.35;3.25;;;12.20;99.90;;;;;;4933023;29;20397;-77
2022/08/21 09:47:18;;;;;;;8.88;3.08;;;12.10;99.90;;;;;;4918030;29;20409;-76
2022/08/21 09:49:46;;;;;;;6.57;2.97;;;12.10;99.90;;;;;;4927444;29;20394;-77
2022/08/21 09:52:30;;;;;;;8.15;3.15;;;12.10;99.90;;;;;;4929581;29;20406;-79
2022/08/21 09:54:58;;;;;;;5.85;2.75;;;12.00;99.90;;;;;;4932174;29;20477;-80
2022/08/21 09:57:41;;;;;;;8.85;2.97;;;12.00;99.90;;;;;;4908688;29;20390;-77
2022/08/21 10:00:26;;;;;;;7.32;2.83;;;11.90;99.90;;;;;;4916124;29;20413;-77
2022/08/21 10:02:53;;;;;;;7.85;2.72;;;11.90;99.90;;;;;;4931873;29;20869;-75
2022/08/21 10:05:24;;;;;;;6.22;2.33;;;11.90;99.90;;;;;;4930739;29;20495;-77
2022/08/21 10:07:51;;;;;;;6.85;2.53;;;11.90;99.90;;;;;;4934950;28;20390;-75
2022/08/21 10:10:28;;;;;;;10.63;3.17;;;11.90;99.90;;;;;;4992555;28;20531;-77
2022/08/21 10:13:34;;;;;;;8.93;2.90;;;12.00;99.90;;;;;;4995451;28;20423;-75
2022/08/21 10:16:34;;;;;;;8.23;3.10;;;11.80;99.90;;;;;;4993724;28;20392;-76
2022/08/21 10:19:22;;;;;;;8.93;3.10;;;11.90;99.90;;;;;;4992982;28;20445;-75
2022/08/21 10:22:01;;;;;;;11.55;3.40;;;11.80;99.90;;;;;;4975280;28;20385;-76
2022/08/21 10:25:12;;;;;;;11.87;3.43;;;11.70;99.90;;;;;;4991983;28;20510;-76
2022/08/21 10:28:27;;;;;;;8.82;3.53;;;11.70;99.90;;;;;;4949953;29;20471;-78
2022/08/21 10:31:01;;;;;;;9.77;3.67;;;11.70;99.90;;;;;;4882553;29;20470;-75
2022/08/21 10:34:24;;;;;;;11.27;3.55;;;11.60;99.90;;;;;;4894116;29;20500;-77
2022/08/21 10:37:05;;;;;;;7.18;3.20;;;11.50;99.90;;;;;;4801725;29;20397;-77
2022/08/21 10:39:36;;;;;;;8.27;3.30;;;11.50;99.90;;;;;;4792129;29;20405;-78
2022/08/21 10:42:18;;;;;;;7.25;2.88;;;11.50;99.90;;;;;;4794566;29;20423;-77
2022/08/21 10:45:14;;;;;;;8.90;3.20;;;11.40;99.90;;;;;;4799805;29;20450;-77
2022/08/21 10:47:41;;;;;;;9.23;2.87;;;11.40;99.90;;;;;;4788592;29;20848;-75
2022/08/21 10:50:16;;;;;;;8.98;2.53;;;11.40;99.90;;;;;;4805405;29;20402;-79
2022/08/21 10:53:06;;;;;;;9.40;2.67;;;11.40;99.90;;;;;;4803463;29;20429;-77
2022/08/21 10:56:01;;;;;;;9.35;2.80;;;11.40;99.90;;;;;;4806318;29;20917;-76
2022/08/21 10:58:33;;;;;;;6.72;2.53;;;11.30;99.90;;;;;;4805391;29;20485;-77
2022/08/21 11:01:25;;;;;;;7.93;2.70;;;11.20;99.90;;;;;;4805867;29;20778;-76
2022/08/21 11:04:09;;;;;;;6.55;2.80;;;11.20;99.90;;;;;;4811936;29;20900;-75
2022/08/21 11:06:42;;;;;;;8.93;2.95;;;11.20;99.90;;;;;;4846365;28;20757;-74
2022/08/21 11:09:18;;;;;;;7.30;2.50;;;11.20;99.90;;;;;;5000795;28;20385;-75
2022/08/21 11:12:01;;;;;;;8.18;2.50;;;11.20;99.90;;;;;;5009429;28;20738;-75
2022/08/21 11:15:12;;;;;;;5.60;2.20;;;11.20;99.90;;;;;;4998080;28;20397;-74
2022/08/21 11:18:17;;;;;;;8.38;2.58;;;11.20;99.90;;;;;;4916776;29;20397;-75
2022/08/21 11:21:16;;;;;;;8.10;2.40;;;11.20;99.90;;;;;;4879915;29;20403;-76
2022/08/21 11:24:04;;;;;;;8.57;2.40;;;11.20;99.90;;;;;;4804489;29;20412;-75
2022/08/21 11:27:01;;;;;;;10.50;2.70;;;11.10;99.90;;;;;;4809959;29;20406;-75
2022/08/21 11:29:39;;;;;;;6.95;2.47;;;11.00;99.90;;;;;;4800848;29;20414;-76
2022/08/21 11:32:06;;;;;;;6.40;2.50;;;10.90;99.90;;;;;;4804171;29;20406;-76
2022/08/21 11:34:51;;;;;;;7.35;2.63;;;10.80;99.90;;;;;;4803869;29;20417;-76
2022/08/21 11:37:41;;;;;;;8.82;2.60;;;10.80;99.90;;;;;;4803915;29;20394;-76
2022/08/21 11:40:31;;;;;;;8.27;2.58;;;10.70;99.90;;;;;;4796574;29;20395;-77
2022/08/21 11:43:30;;;;;;;7.87;2.43;;;10.60;99.90;;;;;;4783478;29;20419;-76
2022/08/21 11:46:08;;;;;;;9.07;2.50;;;10.60;99.90;;;;;;4785418;30;20411;-74
2022/08/21 11:48:44;;;;;;;7.10;1.92;;;10.60;99.90;;;;;;4773972;30;20395;-75
2022/08/21 11:51:16;;;;;;;5.32;2.00;;;10.70;99.90;;;;;;4805661;29;20771;-74
2022/08/21 11:54:04;;;;;;;4.40;1.90;;;10.80;99.90;;;;;;4839268;29;20429;-74
2022/08/21 11:56:42;;;;;;;6.00;1.88;;;10.70;99.90;;;;;;4837845;29;20403;-76
2022/08/21 11:59:20;;;;;;;6.22;1.70;;;10.80;99.90;;;;;;4856990;29;20465;-74
2022/08/21 12:01:50;;;;;;;8.17;1.93;;;10.80;99.90;;;;;;4924075;29;20457;-76
2022/08/21 12:04:45;;;;;;;4.75;1.80;;;10.80;99.90;;;;;;4925212;29;20412;-76
2022/08/21 12:07:30;;;;;;;6.03;1.83;;;10.80;99.90;;;;;;4915918;29;20926;-75
2022/08/21 12:10:00;;;;;;;5.88;1.60;;;10.90;99.90;;;;;;4931917;29;20943;-76
2022/08/21 12:12:29;;;;;;;5.82;1.52;;;10.90;99.90;;;;;;4930591;29;20425;-75
2022/08/21 12:15:24;;;;;;;5.97;1.90;;;11.00;99.90;;;;;;4932580;29;20405;-75
2022/08/21 12:18:01;;;;;;;7.40;1.80;;;10.90;99.90;;;;;;4932312;29;20453;-76
2022/08/21 12:20:48;;;;;;;5.93;1.85;;;10.90;99.90;;;;;;4962301;28;20487;-75
2022/08/21 12:23:25;;;;;;;8.53;2.80;;;10.80;99.90;;;;;;4981787;28;20469;-75
2022/08/21 12:26:09;;;;;;;11.35;6.28;;;10.80;99.90;;;;;;4992477;28;20372;-76
2022/08/21 12:28:37;;;;;;;14.63;7.18;;;10.60;99.90;;;;;;4992257;28;20397;-76
2022/08/21 12:31:04;;;;;;;13.73;6.93;;;10.50;99.90;;;;;;4992510;28;20900;-76
2022/08/21 12:33:39;;;;;;;12.25;5.72;;;10.30;99.90;;;;;;4996915;28;20420;-76
2022/08/21 12:36:21;;;;;;;11.98;5.60;;;10.20;99.90;;;;;;5002039;28;20375;-76
2022/08/21 12:39:00;;;;;;;7.80;3.50;;;10.10;99.90;;;;;;4992412;28;20389;-76
2022/08/21 12:41:39;;;;;;;7.00;3.50;;;10.00;99.90;;;;;;4992137;28;20733;-76
2022/08/21 12:44:10;;;;;;;8.77;3.20;;;9.80;99.90;;;;;;4992341;28;20523;-74
2022/08/21 12:46:50;;;;;;;8.05;3.20;;;9.70;99.90;;;;;;4991520;28;20385;-76
2022/08/21 12:49:52;;;;;;;7.43;2.95;;;9.60;99.90;;;;;;4992266;28;20413;-75
2022/08/21 12:52:29;;;;;;;10.70;3.63;;;9.50;99.90;;;;;;4950774;29;20404;-76
2022/08/21 12:54:56;;;;;;;8.75;3.40;;;9.50;99.90;;;;;;4951235;29;20448;-75
2022/08/21 12:57:29;;;;;;;9.15;3.67;;;9.50;99.90;;;;;;4951096;29;20384;-75
2022/08/21 13:00:10;;;;;;;9.10;3.58;;;9.40;99.90;;;;;;4950895;29;20800;-76
2022/08/21 13:02:43;;;;;;;10.52;3.75;;;9.30;99.90;;;;;;4950818;29;20752;-76
2022/08/21 13:05:16;;;;;;;8.27;3.60;;;9.30;99.90;;;;;;4949888;29;20447;-75
2022/08/21 13:07:48;;;;;;;7.10;3.70;;;9.20;99.90;;;;;;4930647;29;20844;-75
2022/08/21 13:10:28;;;;;;;10.50;3.90;;;9.20;99.90;;;;;;4947914;28;20404;-76
2022/08/21 13:13:01;;;;;;;10.70;4.00;;;9.20;99.90;;;;;;4949698;29;20404;-75